PWSweather.com
Personal Weather Stations
Station Observations
BULSHOEK
ClanwilliamZA

ClanwilliamZA

Lat: -32.003, Lon: 18.782

Elevation: 213

Station Type: Davis Vantage Pro

High Low Average
Temperature 102.3°F39.1°C 60.9°F16.1°C 79.9°F26.6°C
Dew Point 62.0°F16.7°C 55.8°F13.2°C 57.7°F14.3°C
Winds 7.2 mph 11.6 kmh Calm Calm 1.0 mph S1.6 kmh S
Wind Gusts 15.0 mph24.1 kmh -- 4.0 mph6.4 kmh
Humidity 87% 23% 54%
Pressure 29.84 in1010.5 mb 29.60 in1002.4 mb -
Precipitation 0.00 in0.0 mm - -
Hour Temp Dew Point Humidity Winds Wind Gusts Pressure Precip Precip Rate Daily Precip Total
12:00 AM 65.7°F18.7°C 58.6°F14.8°C 78% Calm Calm -- 29.84 in1010.5 mb 0.00 in0.0 mm 0.00 in0.0 mm 0.00 in0.0 mm
12:05 AM 65.7°F18.7°C 59.0°F15.0°C 79% Calm Calm -- 29.84 in1010.5 mb 0.00 in0.0 mm 0.00 in0.0 mm 0.00 in0.0 mm
12:10 AM 65.6°F18.7°C 59.3°F15.2°C 80% Calm Calm -- 29.84 in1010.5 mb 0.00 in0.0 mm 0.00 in0.0 mm 0.00 in0.0 mm
12:15 AM 65.7°F18.7°C 59.4°F15.2°C 80% Calm Calm -- 29.84 in1010.5 mb 0.00 in0.0 mm 0.00 in0.0 mm 0.00 in0.0 mm
12:20 AM 65.7°F18.7°C 59.4°F15.2°C 80% Calm Calm -- 29.84 in1010.5 mb 0.00 in0.0 mm 0.00 in0.0 mm 0.00 in0.0 mm
12:25 AM 65.4°F18.6°C 59.1°F15.1°C 80% Calm Calm -- 29.84 in1010.5 mb 0.00 in0.0 mm 0.00 in0.0 mm 0.00 in0.0 mm
12:30 AM 65.1°F18.4°C 58.8°F14.9°C 80% Calm Calm -- 29.84 in1010.5 mb 0.00 in0.0 mm 0.00 in0.0 mm 0.00 in0.0 mm
12:35 AM 65.0°F18.3°C 58.7°F14.8°C 80% Calm Calm -- 29.84 in1010.5 mb 0.00 in0.0 mm 0.00 in0.0 mm 0.00 in0.0 mm
12:40 AM 64.8°F18.2°C 58.8°F14.9°C 81% Calm Calm -- 29.84 in1010.5 mb 0.00 in0.0 mm 0.00 in0.0 mm 0.00 in0.0 mm
12:45 AM 64.8°F18.2°C 58.8°F14.9°C 81% Calm Calm -- 29.84 in1010.5 mb 0.00 in0.0 mm 0.00 in0.0 mm 0.00 in0.0 mm
12:50 AM 64.4°F18.0°C 58.4°F14.7°C 81% Calm Calm -- 29.84 in1010.5 mb 0.00 in0.0 mm 0.00 in0.0 mm 0.00 in0.0 mm
12:55 AM 64.3°F17.9°C 58.3°F14.6°C 81% Calm Calm -- 29.84 in1010.5 mb 0.00 in0.0 mm 0.00 in0.0 mm 0.00 in0.0 mm
01:00 AM 64.2°F17.9°C 57.9°F14.4°C 80% Calm Calm -- 29.84 in1010.5 mb 0.00 in0.0 mm 0.00 in0.0 mm 0.00 in0.0 mm
01:05 AM 64.2°F17.9°C 57.9°F14.4°C 80% Calm Calm -- 29.84 in1010.5 mb 0.00 in0.0 mm 0.00 in0.0 mm 0.00 in0.0 mm
01:10 AM 64.3°F17.9°C 58.3°F14.6°C 81% Calm Calm -- 29.84 in1010.5 mb 0.00 in0.0 mm 0.00 in0.0 mm 0.00 in0.0 mm
01:15 AM 64.6°F18.1°C 58.6°F14.8°C 81% Calm Calm -- 29.84 in1010.5 mb 0.00 in0.0 mm 0.00 in0.0 mm 0.00 in0.0 mm
01:20 AM 64.7°F18.2°C 58.7°F14.8°C 81% Calm Calm -- 29.84 in1010.5 mb 0.00 in0.0 mm 0.00 in0.0 mm 0.00 in0.0 mm
01:25 AM 64.6°F18.1°C 58.6°F14.8°C 81% Calm Calm -- 29.84 in1010.5 mb 0.00 in0.0 mm 0.00 in0.0 mm 0.00 in0.0 mm
01:30 AM 64.4°F18.0°C 58.4°F14.7°C 81% Calm Calm -- 29.84 in1010.5 mb 0.00 in0.0 mm 0.00 in0.0 mm 0.00 in0.0 mm
01:35 AM 64.0°F17.8°C 58.0°F14.4°C 81% Calm Calm -- 29.84 in1010.5 mb 0.00 in0.0 mm 0.00 in0.0 mm 0.00 in0.0 mm
01:40 AM 63.6°F17.6°C 57.7°F14.3°C 81% Calm Calm -- 29.84 in1010.5 mb 0.00 in0.0 mm 0.00 in0.0 mm 0.00 in0.0 mm
01:45 AM 63.6°F17.6°C 58.0°F14.4°C 82% Calm Calm -- 29.84 in1010.5 mb 0.00 in0.0 mm 0.00 in0.0 mm 0.00 in0.0 mm
01:50 AM 63.6°F17.6°C 58.0°F14.4°C 82% Calm Calm -- 29.84 in1010.5 mb 0.00 in0.0 mm 0.00 in0.0 mm 0.00 in0.0 mm
01:55 AM 63.5°F17.5°C 57.9°F14.4°C 82% Calm Calm -- 29.84 in1010.5 mb 0.00 in0.0 mm 0.00 in0.0 mm 0.00 in0.0 mm
02:00 AM 63.2°F17.3°C 57.9°F14.4°C 83% Calm Calm -- 29.84 in1010.5 mb 0.00 in0.0 mm 0.00 in0.0 mm 0.00 in0.0 mm
02:05 AM 63.1°F17.3°C 57.8°F14.3°C 83% Calm Calm -- 29.84 in1010.5 mb 0.00 in0.0 mm 0.00 in0.0 mm 0.00 in0.0 mm
02:10 AM 63.2°F17.3°C 57.9°F14.4°C 83% Calm Calm -- 29.84 in1010.5 mb 0.00 in0.0 mm 0.00 in0.0 mm 0.00 in0.0 mm
02:15 AM 63.3°F17.4°C 58.0°F14.4°C 83% Calm Calm -- 29.83 in1010.2 mb 0.00 in0.0 mm 0.00 in0.0 mm 0.00 in0.0 mm
02:20 AM 63.2°F17.3°C 57.9°F14.4°C 83% Calm Calm -- 29.83 in1010.2 mb 0.00 in0.0 mm 0.00 in0.0 mm 0.00 in0.0 mm
02:25 AM 63.3°F17.4°C 58.4°F14.7°C 84% Calm Calm -- 29.83 in1010.2 mb 0.00 in0.0 mm 0.00 in0.0 mm 0.00 in0.0 mm
02:30 AM 63.2°F17.3°C 58.3°F14.6°C 84% Calm Calm 2.0 mph3.2 kmh 29.83 in1010.2 mb 0.00 in0.0 mm 0.00 in0.0 mm 0.00 in0.0 mm
02:35 AM 63.0°F17.2°C 58.1°F14.5°C 84% Calm Calm -- 29.83 in1010.2 mb 0.00 in0.0 mm 0.00 in0.0 mm 0.00 in0.0 mm
02:40 AM 62.8°F17.1°C 57.9°F14.4°C 84% Calm Calm -- 29.83 in1010.2 mb 0.00 in0.0 mm 0.00 in0.0 mm 0.00 in0.0 mm
02:45 AM 62.6°F17.0°C 57.7°F14.3°C 84% Calm Calm -- 29.83 in1010.2 mb 0.00 in0.0 mm 0.00 in0.0 mm 0.00 in0.0 mm
02:50 AM 62.5°F16.9°C 57.6°F14.2°C 84% Calm Calm 1.0 mph1.6 kmh 29.83 in1010.2 mb 0.00 in0.0 mm 0.00 in0.0 mm 0.00 in0.0 mm
02:55 AM 62.5°F16.9°C 57.6°F14.2°C 84% Calm Calm -- 29.83 in1010.2 mb 0.00 in0.0 mm 0.00 in0.0 mm 0.00 in0.0 mm
03:00 AM 62.7°F17.1°C 57.8°F14.3°C 84% Calm Calm -- 29.83 in1010.2 mb 0.00 in0.0 mm 0.00 in0.0 mm 0.00 in0.0 mm
03:05 AM 62.5°F16.9°C 57.6°F14.2°C 84% Calm Calm -- 29.83 in1010.2 mb 0.00 in0.0 mm 0.00 in0.0 mm 0.00 in0.0 mm
03:10 AM 62.4°F16.9°C 57.5°F14.2°C 84% Calm Calm -- 29.83 in1010.2 mb 0.00 in0.0 mm 0.00 in0.0 mm 0.00 in0.0 mm
03:15 AM 62.3°F16.8°C 57.4°F14.1°C 84% Calm Calm 1.0 mph1.6 kmh 29.83 in1010.2 mb 0.00 in0.0 mm 0.00 in0.0 mm 0.00 in0.0 mm
03:20 AM 62.2°F16.8°C 57.3°F14.1°C 84% Calm Calm 1.0 mph1.6 kmh 29.83 in1010.2 mb 0.00 in0.0 mm 0.00 in0.0 mm 0.00 in0.0 mm
03:25 AM 62.0°F16.7°C 57.1°F13.9°C 84% Calm Calm -- 29.83 in1010.2 mb 0.00 in0.0 mm 0.00 in0.0 mm 0.00 in0.0 mm
03:30 AM 62.0°F16.7°C 57.4°F14.1°C 85% Calm Calm 2.0 mph3.2 kmh 29.83 in1010.2 mb 0.00 in0.0 mm 0.00 in0.0 mm 0.00 in0.0 mm
03:35 AM 62.2°F16.8°C 57.3°F14.1°C 84% Calm Calm 1.0 mph1.6 kmh 29.83 in1010.2 mb 0.00 in0.0 mm 0.00 in0.0 mm 0.00 in0.0 mm
03:40 AM 62.0°F16.7°C 57.1°F13.9°C 84% Calm Calm -- 29.83 in1010.2 mb 0.00 in0.0 mm 0.00 in0.0 mm 0.00 in0.0 mm
03:45 AM 62.0°F16.7°C 57.1°F13.9°C 84% Calm Calm 2.0 mph3.2 kmh 29.82 in1009.8 mb 0.00 in0.0 mm 0.00 in0.0 mm 0.00 in0.0 mm
03:50 AM 61.9°F16.6°C 57.0°F13.9°C 84% 1.0 mph S1.6 kmh S 4.0 mph6.4 kmh 29.82 in1009.8 mb 0.00 in0.0 mm 0.00 in0.0 mm 0.00 in0.0 mm
03:55 AM 61.8°F16.6°C 56.9°F13.8°C 84% Calm Calm 2.0 mph3.2 kmh 29.82 in1009.8 mb 0.00 in0.0 mm 0.00 in0.0 mm 0.00 in0.0 mm
04:00 AM 61.7°F16.5°C 56.8°F13.8°C 84% Calm Calm 2.0 mph3.2 kmh 29.82 in1009.8 mb 0.00 in0.0 mm 0.00 in0.0 mm 0.00 in0.0 mm
04:10 AM 61.3°F16.3°C 56.4°F13.6°C 84% Calm Calm 1.0 mph1.6 kmh 29.82 in1009.8 mb 0.00 in0.0 mm 0.00 in0.0 mm 0.00 in0.0 mm
04:15 AM 61.1°F16.2°C 56.2°F13.4°C 84% Calm Calm -- 29.82 in1009.8 mb 0.00 in0.0 mm 0.00 in0.0 mm 0.00 in0.0 mm
04:20 AM 61.1°F16.2°C 56.2°F13.4°C 84% Calm Calm -- 29.82 in1009.8 mb 0.00 in0.0 mm 0.00 in0.0 mm 0.00 in0.0 mm
04:25 AM 61.2°F16.2°C 56.7°F13.7°C 85% Calm Calm 2.0 mph3.2 kmh 29.82 in1009.8 mb 0.00 in0.0 mm 0.00 in0.0 mm 0.00 in0.0 mm
04:30 AM 61.3°F16.3°C 56.7°F13.7°C 85% Calm Calm -- 29.82 in1009.8 mb 0.00 in0.0 mm 0.00 in0.0 mm 0.00 in0.0 mm
04:35 AM 61.2°F16.2°C 56.7°F13.7°C 85% Calm Calm -- 29.82 in1009.8 mb 0.00 in0.0 mm 0.00 in0.0 mm 0.00 in0.0 mm
04:40 AM 61.1°F16.2°C 56.6°F13.7°C 85% Calm Calm -- 29.82 in1009.8 mb 0.00 in0.0 mm 0.00 in0.0 mm 0.00 in0.0 mm
04:45 AM 61.0°F16.1°C 56.5°F13.6°C 85% Calm Calm -- 29.81 in1009.5 mb 0.00 in0.0 mm 0.00 in0.0 mm 0.00 in0.0 mm
04:50 AM 61.1°F16.2°C 56.9°F13.8°C 86% Calm Calm -- 29.81 in1009.5 mb 0.00 in0.0 mm 0.00 in0.0 mm 0.00 in0.0 mm
04:55 AM 61.1°F16.2°C 56.9°F13.8°C 86% Calm Calm -- 29.81 in1009.5 mb 0.00 in0.0 mm 0.00 in0.0 mm 0.00 in0.0 mm
05:00 AM 61.2°F16.2°C 57.0°F13.9°C 86% Calm Calm -- 29.81 in1009.5 mb 0.00 in0.0 mm 0.00 in0.0 mm 0.00 in0.0 mm
05:05 AM 61.2°F16.2°C 57.0°F13.9°C 86% Calm Calm -- 29.81 in1009.5 mb 0.00 in0.0 mm 0.00 in0.0 mm 0.00 in0.0 mm
05:10 AM 61.4°F16.3°C 57.2°F14.0°C 86% Calm Calm -- 29.81 in1009.5 mb 0.00 in0.0 mm 0.00 in0.0 mm 0.00 in0.0 mm
05:15 AM 61.4°F16.3°C 57.2°F14.0°C 86% Calm Calm -- 29.81 in1009.5 mb 0.00 in0.0 mm 0.00 in0.0 mm 0.00 in0.0 mm
05:20 AM 61.5°F16.4°C 57.3°F14.1°C 86% Calm Calm -- 29.81 in1009.5 mb 0.00 in0.0 mm 0.00 in0.0 mm 0.00 in0.0 mm
05:25 AM 61.7°F16.5°C 57.5°F14.2°C 86% Calm Calm 3.0 mph4.8 kmh 29.81 in1009.5 mb 0.00 in0.0 mm 0.00 in0.0 mm 0.00 in0.0 mm
05:30 AM 61.7°F16.5°C 57.5°F14.2°C 86% Calm Calm -- 29.82 in1009.8 mb 0.00 in0.0 mm 0.00 in0.0 mm 0.00 in0.0 mm
05:35 AM 61.5°F16.4°C 57.3°F14.1°C 86% Calm Calm 1.0 mph1.6 kmh 29.82 in1009.8 mb 0.00 in0.0 mm 0.00 in0.0 mm 0.00 in0.0 mm
05:40 AM 61.3°F16.3°C 57.1°F13.9°C 86% Calm Calm -- 29.82 in1009.8 mb 0.00 in0.0 mm 0.00 in0.0 mm 0.00 in0.0 mm
05:45 AM 61.2°F16.2°C 57.0°F13.9°C 86% Calm Calm -- 29.81 in1009.5 mb 0.00 in0.0 mm 0.00 in0.0 mm 0.00 in0.0 mm
05:50 AM 61.1°F16.2°C 56.9°F13.8°C 86% Calm Calm -- 29.81 in1009.5 mb 0.00 in0.0 mm 0.00 in0.0 mm 0.00 in0.0 mm
05:55 AM 61.3°F16.3°C 57.1°F13.9°C 86% Calm Calm 2.0 mph3.2 kmh 29.81 in1009.5 mb 0.00 in0.0 mm 0.00 in0.0 mm 0.00 in0.0 mm
06:00 AM 61.9°F16.6°C 58.0°F14.4°C 87% Calm Calm 2.0 mph3.2 kmh 29.82 in1009.8 mb 0.00 in0.0 mm 0.00 in0.0 mm 0.00 in0.0 mm
06:05 AM 62.1°F16.7°C 57.9°F14.4°C 86% Calm Calm 2.0 mph3.2 kmh 29.82 in1009.8 mb 0.00 in0.0 mm 0.00 in0.0 mm 0.00 in0.0 mm
06:10 AM 61.9°F16.6°C 57.7°F14.3°C 86% Calm Calm -- 29.82 in1009.8 mb 0.00 in0.0 mm 0.00 in0.0 mm 0.00 in0.0 mm
06:15 AM 61.6°F16.4°C 57.4°F14.1°C 86% Calm Calm 1.0 mph1.6 kmh 29.82 in1009.8 mb 0.00 in0.0 mm 0.00 in0.0 mm 0.00 in0.0 mm
06:20 AM 61.4°F16.3°C 56.8°F13.8°C 85% Calm Calm -- 29.82 in1009.8 mb 0.00 in0.0 mm 0.00 in0.0 mm 0.00 in0.0 mm
06:25 AM 61.2°F16.2°C 57.0°F13.9°C 86% Calm Calm -- 29.82 in1009.8 mb 0.00 in0.0 mm 0.00 in0.0 mm 0.00 in0.0 mm
06:30 AM 61.2°F16.2°C 57.0°F13.9°C 86% Calm Calm -- 29.82 in1009.8 mb 0.00 in0.0 mm 0.00 in0.0 mm 0.00 in0.0 mm
06:35 AM 61.1°F16.2°C 56.9°F13.8°C 86% Calm Calm -- 29.82 in1009.8 mb 0.00 in0.0 mm 0.00 in0.0 mm 0.00 in0.0 mm
06:40 AM 61.2°F16.2°C 57.0°F13.9°C 86% Calm Calm -- 29.82 in1009.8 mb 0.00 in0.0 mm 0.00 in0.0 mm 0.00 in0.0 mm
06:45 AM 61.1°F16.2°C 56.9°F13.8°C 86% Calm Calm -- 29.81 in1009.5 mb 0.00 in0.0 mm 0.00 in0.0 mm 0.00 in0.0 mm
06:50 AM 60.9°F16.1°C 56.7°F13.7°C 86% Calm Calm 1.0 mph1.6 kmh 29.81 in1009.5 mb 0.00 in0.0 mm 0.00 in0.0 mm 0.00 in0.0 mm
06:55 AM 60.9°F16.1°C 56.7°F13.7°C 86% Calm Calm -- 29.81 in1009.5 mb 0.00 in0.0 mm 0.00 in0.0 mm 0.00 in0.0 mm
07:00 AM 61.0°F16.1°C 56.8°F13.8°C 86% Calm Calm -- 29.81 in1009.5 mb 0.00 in0.0 mm 0.00 in0.0 mm 0.00 in0.0 mm
07:05 AM 61.1°F16.2°C 56.9°F13.8°C 86% Calm Calm -- 29.81 in1009.5 mb 0.00 in0.0 mm 0.00 in0.0 mm 0.00 in0.0 mm
07:10 AM 61.1°F16.2°C 56.9°F13.8°C 86% Calm Calm -- 29.81 in1009.5 mb 0.00 in0.0 mm 0.00 in0.0 mm 0.00 in0.0 mm
07:15 AM 61.1°F16.2°C 56.9°F13.8°C 86% Calm Calm -- 29.81 in1009.5 mb 0.00 in0.0 mm 0.00 in0.0 mm 0.00 in0.0 mm
07:20 AM 61.2°F16.2°C 57.0°F13.9°C 86% Calm Calm -- 29.81 in1009.5 mb 0.00 in0.0 mm 0.00 in0.0 mm 0.00 in0.0 mm
07:25 AM 61.4°F16.3°C 57.5°F14.2°C 87% Calm Calm 2.0 mph3.2 kmh 29.81 in1009.5 mb 0.00 in0.0 mm 0.00 in0.0 mm 0.00 in0.0 mm
07:30 AM 61.4°F16.3°C 57.2°F14.0°C 86% 1.0 mph SSW1.6 kmh SSW 2.0 mph3.2 kmh 29.82 in1009.8 mb 0.00 in0.0 mm 0.00 in0.0 mm 0.00 in0.0 mm
07:35 AM 61.2°F16.2°C 57.0°F13.9°C 86% Calm Calm 2.0 mph3.2 kmh 29.82 in1009.8 mb 0.00 in0.0 mm 0.00 in0.0 mm 0.00 in0.0 mm
07:40 AM 61.1°F16.2°C 56.9°F13.8°C 86% Calm Calm 1.0 mph1.6 kmh 29.82 in1009.8 mb 0.00 in0.0 mm 0.00 in0.0 mm 0.00 in0.0 mm
07:45 AM 61.2°F16.2°C 57.0°F13.9°C 86% Calm Calm -- 29.82 in1009.8 mb 0.00 in0.0 mm 0.00 in0.0 mm 0.00 in0.0 mm
07:50 AM 61.3°F16.3°C 57.4°F14.1°C 87% Calm Calm 2.0 mph3.2 kmh 29.82 in1009.8 mb 0.00 in0.0 mm 0.00 in0.0 mm 0.00 in0.0 mm
07:55 AM 61.4°F16.3°C 57.5°F14.2°C 87% Calm Calm -- 29.82 in1009.8 mb 0.00 in0.0 mm 0.00 in0.0 mm 0.00 in0.0 mm
08:00 AM 61.4°F16.3°C 57.2°F14.0°C 86% Calm Calm 2.0 mph3.2 kmh 29.82 in1009.8 mb 0.00 in0.0 mm 0.00 in0.0 mm 0.00 in0.0 mm
08:05 AM 61.5°F16.4°C 57.3°F14.1°C 86% Calm Calm 1.0 mph1.6 kmh 29.82 in1009.8 mb 0.00 in0.0 mm 0.00 in0.0 mm 0.00 in0.0 mm
08:10 AM 62.0°F16.7°C 58.1°F14.5°C 87% Calm Calm -- 29.82 in1009.8 mb 0.00 in0.0 mm 0.00 in0.0 mm 0.00 in0.0 mm
08:15 AM 62.7°F17.1°C 58.8°F14.9°C 87% Calm Calm 1.0 mph1.6 kmh 29.82 in1009.8 mb 0.00 in0.0 mm 0.00 in0.0 mm 0.00 in0.0 mm
08:20 AM 63.6°F17.6°C 59.3°F15.2°C 86% Calm Calm 1.0 mph1.6 kmh 29.82 in1009.8 mb 0.00 in0.0 mm 0.00 in0.0 mm 0.00 in0.0 mm
08:25 AM 64.5°F18.1°C 59.9°F15.5°C 85% Calm Calm -- 29.82 in1009.8 mb 0.00 in0.0 mm 0.00 in0.0 mm 0.00 in0.0 mm
08:30 AM 65.2°F18.4°C 60.2°F15.7°C 84% Calm Calm 1.0 mph1.6 kmh 29.82 in1009.8 mb 0.00 in0.0 mm 0.00 in0.0 mm 0.00 in0.0 mm
08:35 AM 66.3°F19.1°C 60.6°F15.9°C 82% Calm Calm -- 29.82 in1009.8 mb 0.00 in0.0 mm 0.00 in0.0 mm 0.00 in0.0 mm
08:40 AM 67.0°F19.4°C 60.6°F15.9°C 80% Calm Calm 1.0 mph1.6 kmh 29.82 in1009.8 mb 0.00 in0.0 mm 0.00 in0.0 mm 0.00 in0.0 mm
12:30 PM 94.5°F34.7°C 60.0°F15.6°C 32% 2.0 mph E3.2 kmh E 6.0 mph9.7 kmh 29.74 in1007.1 mb 0.00 in0.0 mm 0.00 in0.0 mm 0.00 in0.0 mm
12:35 PM 93.9°F34.4°C 58.6°F14.8°C 31% 2.7 mph NE4.3 kmh NE 14.0 mph22.5 kmh 29.74 in1007.1 mb 0.00 in0.0 mm 0.00 in0.0 mm 0.00 in0.0 mm
12:40 PM 94.6°F34.8°C 59.2°F15.1°C 31% 1.8 mph NE2.9 kmh NE 14.0 mph22.5 kmh 29.74 in1007.1 mb 0.00 in0.0 mm 0.00 in0.0 mm 0.00 in0.0 mm
12:45 PM 96.3°F35.7°C 59.8°F15.4°C 30% 1.3 mph NE2.1 kmh NE 10.0 mph16.1 kmh 29.73 in1006.8 mb 0.00 in0.0 mm 0.00 in0.0 mm 0.00 in0.0 mm
12:50 PM 96.6°F35.9°C 59.1°F15.1°C 29% 1.7 mph E2.7 kmh E 6.0 mph9.7 kmh 29.73 in1006.8 mb 0.00 in0.0 mm 0.00 in0.0 mm 0.00 in0.0 mm
12:55 PM 96.8°F36.0°C 59.2°F15.1°C 29% 2.4 mph ENE3.9 kmh ENE 9.0 mph14.5 kmh 29.73 in1006.8 mb 0.00 in0.0 mm 0.00 in0.0 mm 0.00 in0.0 mm
01:00 PM 96.7°F35.9°C 60.1°F15.6°C 30% 1.4 mph NNE2.3 kmh NNE 9.0 mph14.5 kmh 29.72 in1006.4 mb 0.00 in0.0 mm 0.00 in0.0 mm 0.00 in0.0 mm
01:05 PM 97.8°F36.6°C 60.1°F15.6°C 29% 0.8 mph ENE1.3 kmh ENE 7.0 mph11.3 kmh 29.72 in1006.4 mb 0.00 in0.0 mm 0.00 in0.0 mm 0.00 in0.0 mm
01:10 PM 98.1°F36.7°C 59.4°F15.2°C 28% 1.6 mph NNE2.6 kmh NNE 7.0 mph11.3 kmh 29.72 in1006.4 mb 0.00 in0.0 mm 0.00 in0.0 mm 0.00 in0.0 mm
01:15 PM 97.9°F36.6°C 59.2°F15.1°C 28% 1.9 mph NE3.1 kmh NE 12.0 mph19.3 kmh 29.71 in1006.1 mb 0.00 in0.0 mm 0.00 in0.0 mm 0.00 in0.0 mm
01:20 PM 98.2°F36.8°C 60.4°F15.8°C 29% 0.4 mph E0.6 kmh E 12.0 mph19.3 kmh 29.71 in1006.1 mb 0.00 in0.0 mm 0.00 in0.0 mm 0.00 in0.0 mm
01:25 PM 98.8°F37.1°C 58.9°F14.9°C 27% 1.3 mph NE2.1 kmh NE 9.0 mph14.5 kmh 29.71 in1006.1 mb 0.00 in0.0 mm 0.00 in0.0 mm 0.00 in0.0 mm
01:30 PM 98.8°F37.1°C 60.0°F15.6°C 28% 1.8 mph NE2.9 kmh NE 9.0 mph14.5 kmh 29.70 in1005.8 mb 0.00 in0.0 mm 0.00 in0.0 mm 0.00 in0.0 mm
01:35 PM 98.4°F36.9°C 58.6°F14.8°C 27% 2.9 mph NE4.7 kmh NE 9.0 mph14.5 kmh 29.70 in1005.8 mb 0.00 in0.0 mm 0.00 in0.0 mm 0.00 in0.0 mm
01:40 PM 98.6°F37.0°C 59.8°F15.4°C 28% 2.3 mph NE3.7 kmh NE 9.0 mph14.5 kmh 29.70 in1005.8 mb 0.00 in0.0 mm 0.00 in0.0 mm 0.00 in0.0 mm
01:45 PM 99.2°F37.3°C 60.3°F15.7°C 28% 0.1 mph NE0.2 kmh NE 9.0 mph14.5 kmh 29.69 in1005.4 mb 0.00 in0.0 mm 0.00 in0.0 mm 0.00 in0.0 mm
01:50 PM 99.2°F37.3°C 59.3°F15.2°C 27% 0.9 mph NNE1.4 kmh NNE 5.0 mph8.0 kmh 29.69 in1005.4 mb 0.00 in0.0 mm 0.00 in0.0 mm 0.00 in0.0 mm
01:55 PM 99.9°F37.7°C 58.8°F14.9°C 26% 0.4 mph NE0.6 kmh NE 5.0 mph8.0 kmh 29.69 in1005.4 mb 0.00 in0.0 mm 0.00 in0.0 mm 0.00 in0.0 mm
02:00 PM 99.6°F37.6°C 59.6°F15.3°C 27% 0.7 mph E1.1 kmh E 9.0 mph14.5 kmh 29.68 in1005.1 mb 0.00 in0.0 mm 0.00 in0.0 mm 0.00 in0.0 mm
02:05 PM 99.4°F37.4°C 59.4°F15.2°C 27% 0.1 mph NW0.2 kmh NW 9.0 mph14.5 kmh 29.68 in1005.1 mb 0.00 in0.0 mm 0.00 in0.0 mm 0.00 in0.0 mm
02:10 PM 100.0°F37.8°C 58.9°F14.9°C 26% 1.3 mph ENE2.1 kmh ENE 9.0 mph14.5 kmh 29.68 in1005.1 mb 0.00 in0.0 mm 0.00 in0.0 mm 0.00 in0.0 mm
02:15 PM 100.6°F38.1°C 58.3°F14.6°C 25% 0.2 mph NE0.3 kmh NE 9.0 mph14.5 kmh 29.68 in1005.1 mb 0.00 in0.0 mm 0.00 in0.0 mm 0.00 in0.0 mm
02:20 PM 101.0°F38.3°C 58.6°F14.8°C 25% 0.2 mph E0.3 kmh E 6.0 mph9.7 kmh 29.68 in1005.1 mb 0.00 in0.0 mm 0.00 in0.0 mm 0.00 in0.0 mm
02:25 PM 100.7°F38.2°C 58.4°F14.7°C 25% 0.3 mph NE0.5 kmh NE 5.0 mph8.0 kmh 29.68 in1005.1 mb 0.00 in0.0 mm 0.00 in0.0 mm 0.00 in0.0 mm
02:30 PM 100.4°F38.0°C 58.1°F14.5°C 25% 0.1 mph E0.2 kmh E 5.0 mph8.0 kmh 29.67 in1004.7 mb 0.00 in0.0 mm 0.00 in0.0 mm 0.00 in0.0 mm
02:35 PM 100.4°F38.0°C 59.2°F15.1°C 26% 0.4 mph W0.6 kmh W 5.0 mph8.0 kmh 29.67 in1004.7 mb 0.00 in0.0 mm 0.00 in0.0 mm 0.00 in0.0 mm
02:40 PM 99.9°F37.7°C 58.8°F14.9°C 26% 0.1 mph NNW0.2 kmh NNW 5.0 mph8.0 kmh 29.67 in1004.7 mb 0.00 in0.0 mm 0.00 in0.0 mm 0.00 in0.0 mm
02:45 PM 100.4°F38.0°C 59.2°F15.1°C 26% 0.4 mph E0.6 kmh E 4.0 mph6.4 kmh 29.66 in1004.4 mb 0.00 in0.0 mm 0.00 in0.0 mm 0.00 in0.0 mm
02:50 PM 100.9°F38.3°C 58.5°F14.7°C 25% 0.4 mph NNE0.6 kmh NNE 4.0 mph6.4 kmh 29.66 in1004.4 mb 0.00 in0.0 mm 0.00 in0.0 mm 0.00 in0.0 mm
02:55 PM 100.1°F37.8°C 57.9°F14.4°C 25% 0.2 mph W0.3 kmh W 3.0 mph4.8 kmh 29.66 in1004.4 mb 0.00 in0.0 mm 0.00 in0.0 mm 0.00 in0.0 mm
03:00 PM 100.2°F37.9°C 61.1°F16.2°C 28% 0.1 mph NW0.2 kmh NW 3.0 mph4.8 kmh 29.65 in1004.1 mb 0.00 in0.0 mm 0.00 in0.0 mm 0.00 in0.0 mm
03:05 PM 100.4°F38.0°C 59.2°F15.1°C 26% 0.1 mph ESE0.2 kmh ESE 3.0 mph4.8 kmh 29.65 in1004.1 mb 0.00 in0.0 mm 0.00 in0.0 mm 0.00 in0.0 mm
03:10 PM 101.5°F38.6°C 57.9°F14.4°C 24% 0.1 mph NE0.2 kmh NE 2.0 mph3.2 kmh 29.65 in1004.1 mb 0.00 in0.0 mm 0.00 in0.0 mm 0.00 in0.0 mm
03:15 PM 101.8°F38.8°C 58.2°F14.6°C 24% 0.2 mph NE0.3 kmh NE 4.0 mph6.4 kmh 29.64 in1003.7 mb 0.00 in0.0 mm 0.00 in0.0 mm 0.00 in0.0 mm
03:20 PM 102.3°F39.1°C 59.7°F15.4°C 25% 0.1 mph N0.2 kmh N 4.0 mph6.4 kmh 29.64 in1003.7 mb 0.00 in0.0 mm 0.00 in0.0 mm 0.00 in0.0 mm
03:25 PM 101.2°F38.4°C 58.8°F14.9°C 25% 0.1 mph W0.2 kmh W 2.0 mph3.2 kmh 29.64 in1003.7 mb 0.00 in0.0 mm 0.00 in0.0 mm 0.00 in0.0 mm
03:30 PM 101.0°F38.3°C 57.5°F14.2°C 24% 0.1 mph WSW0.2 kmh WSW 2.0 mph3.2 kmh 29.64 in1003.7 mb 0.00 in0.0 mm 0.00 in0.0 mm 0.00 in0.0 mm
03:35 PM 100.7°F38.2°C 57.2°F14.0°C 24% 0.3 mph E0.5 kmh E 3.0 mph4.8 kmh 29.64 in1003.7 mb 0.00 in0.0 mm 0.00 in0.0 mm 0.00 in0.0 mm
03:40 PM 100.0°F37.8°C 57.8°F14.3°C 25% 0.3 mph W0.5 kmh W 3.0 mph4.8 kmh 29.64 in1003.7 mb 0.00 in0.0 mm 0.00 in0.0 mm 0.00 in0.0 mm
03:45 PM 100.8°F38.2°C 61.7°F16.5°C 28% 0.2 mph WSW0.3 kmh WSW 3.0 mph4.8 kmh 29.63 in1003.4 mb 0.00 in0.0 mm 0.00 in0.0 mm 0.00 in0.0 mm
03:50 PM 100.8°F38.2°C 59.6°F15.3°C 26% 0.4 mph W0.6 kmh W 3.0 mph4.8 kmh 29.63 in1003.4 mb 0.00 in0.0 mm 0.00 in0.0 mm 0.00 in0.0 mm
03:55 PM 100.5°F38.1°C 58.2°F14.6°C 25% 0.3 mph W0.5 kmh W 3.0 mph4.8 kmh 29.63 in1003.4 mb 0.00 in0.0 mm 0.00 in0.0 mm 0.00 in0.0 mm
04:00 PM 100.0°F37.8°C 60.0°F15.6°C 27% 0.1 mph WSW0.2 kmh WSW 3.0 mph4.8 kmh 29.63 in1003.4 mb 0.00 in0.0 mm 0.00 in0.0 mm 0.00 in0.0 mm
04:05 PM 99.9°F37.7°C 58.8°F14.9°C 26% 0.5 mph WSW0.8 kmh WSW 5.0 mph8.0 kmh 29.63 in1003.4 mb 0.00 in0.0 mm 0.00 in0.0 mm 0.00 in0.0 mm
04:10 PM 99.7°F37.6°C 58.6°F14.8°C 26% 1.8 mph WSW2.9 kmh WSW 7.0 mph11.3 kmh 29.63 in1003.4 mb 0.00 in0.0 mm 0.00 in0.0 mm 0.00 in0.0 mm
04:15 PM 100.2°F37.9°C 60.1°F15.6°C 27% 0.2 mph SW0.3 kmh SW 7.0 mph11.3 kmh 29.62 in1003.0 mb 0.00 in0.0 mm 0.00 in0.0 mm 0.00 in0.0 mm
04:20 PM 99.7°F37.6°C 59.7°F15.4°C 27% 0.9 mph S1.4 kmh S 4.0 mph6.4 kmh 29.62 in1003.0 mb 0.00 in0.0 mm 0.00 in0.0 mm 0.00 in0.0 mm
04:25 PM 99.8°F37.7°C 58.7°F14.8°C 26% 0.1 mph SW0.2 kmh SW 4.0 mph6.4 kmh 29.62 in1003.0 mb 0.00 in0.0 mm 0.00 in0.0 mm 0.00 in0.0 mm
04:30 PM 100.2°F37.9°C 59.1°F15.1°C 26% Calm Calm 2.0 mph3.2 kmh 29.61 in1002.7 mb 0.00 in0.0 mm 0.00 in0.0 mm 0.00 in0.0 mm
04:35 PM 99.8°F37.7°C 58.7°F14.8°C 26% 0.1 mph SW0.2 kmh SW 1.0 mph1.6 kmh 29.61 in1002.7 mb 0.00 in0.0 mm 0.00 in0.0 mm 0.00 in0.0 mm
04:40 PM 100.0°F37.8°C 62.0°F16.7°C 29% Calm Calm 1.0 mph1.6 kmh 29.61 in1002.7 mb 0.00 in0.0 mm 0.00 in0.0 mm 0.00 in0.0 mm
04:45 PM 100.6°F38.1°C 57.2°F14.0°C 24% 0.6 mph SE1.0 kmh SE 4.0 mph6.4 kmh 29.61 in1002.7 mb 0.00 in0.0 mm 0.00 in0.0 mm 0.00 in0.0 mm
04:50 PM 100.6°F38.1°C 58.3°F14.6°C 25% 0.3 mph S0.5 kmh S 4.0 mph6.4 kmh 29.61 in1002.7 mb 0.00 in0.0 mm 0.00 in0.0 mm 0.00 in0.0 mm
04:55 PM 100.7°F38.2°C 57.2°F14.0°C 24% 0.1 mph SE0.2 kmh SE 4.0 mph6.4 kmh 29.61 in1002.7 mb 0.00 in0.0 mm 0.00 in0.0 mm 0.00 in0.0 mm
05:00 PM 101.0°F38.3°C 57.5°F14.2°C 24% 0.3 mph SE0.5 kmh SE 3.0 mph4.8 kmh 29.61 in1002.7 mb 0.00 in0.0 mm 0.00 in0.0 mm 0.00 in0.0 mm
05:05 PM 101.6°F38.7°C 58.0°F14.4°C 24% 0.2 mph ESE0.3 kmh ESE 5.0 mph8.0 kmh 29.61 in1002.7 mb 0.00 in0.0 mm 0.00 in0.0 mm 0.00 in0.0 mm
05:10 PM 100.9°F38.3°C 56.2°F13.4°C 23% 0.4 mph E0.6 kmh E 5.0 mph8.0 kmh 29.61 in1002.7 mb 0.00 in0.0 mm 0.00 in0.0 mm 0.00 in0.0 mm
05:15 PM 101.4°F38.6°C 59.0°F15.0°C 25% Calm Calm 5.0 mph8.0 kmh 29.61 in1002.7 mb 0.00 in0.0 mm 0.00 in0.0 mm 0.00 in0.0 mm
05:20 PM 100.1°F37.8°C 57.9°F14.4°C 25% 0.3 mph S0.5 kmh S 3.0 mph4.8 kmh 29.61 in1002.7 mb 0.00 in0.0 mm 0.00 in0.0 mm 0.00 in0.0 mm
05:25 PM 99.3°F37.4°C 57.2°F14.0°C 25% 0.1 mph S0.2 kmh S 3.0 mph4.8 kmh 29.61 in1002.7 mb 0.00 in0.0 mm 0.00 in0.0 mm 0.00 in0.0 mm
05:30 PM 99.5°F37.5°C 56.2°F13.4°C 24% Calm Calm 1.0 mph1.6 kmh 29.60 in1002.4 mb 0.00 in0.0 mm 0.00 in0.0 mm 0.00 in0.0 mm
05:35 PM 98.7°F37.1°C 58.9°F14.9°C 27% 1.1 mph SW1.8 kmh SW 10.0 mph16.1 kmh 29.60 in1002.4 mb 0.00 in0.0 mm 0.00 in0.0 mm 0.00 in0.0 mm
05:40 PM 97.3°F36.3°C 58.7°F14.8°C 28% 6.7 mph WSW10.8 kmh WSW 13.0 mph20.9 kmh 29.60 in1002.4 mb 0.00 in0.0 mm 0.00 in0.0 mm 0.00 in0.0 mm
05:45 PM 96.6°F35.9°C 59.1°F15.1°C 29% 5.9 mph SW9.5 kmh SW 13.0 mph20.9 kmh 29.61 in1002.7 mb 0.00 in0.0 mm 0.00 in0.0 mm 0.00 in0.0 mm
05:50 PM 96.3°F35.7°C 58.8°F14.9°C 29% 6.4 mph SW10.3 kmh SW 13.0 mph20.9 kmh 29.61 in1002.7 mb 0.00 in0.0 mm 0.00 in0.0 mm 0.00 in0.0 mm
05:55 PM 95.8°F35.4°C 58.4°F14.7°C 29% 4.7 mph SW7.6 kmh SW 13.0 mph20.9 kmh 29.61 in1002.7 mb 0.00 in0.0 mm 0.00 in0.0 mm 0.00 in0.0 mm
06:00 PM 95.2°F35.1°C 58.8°F14.9°C 30% 6.5 mph WSW10.5 kmh WSW 12.0 mph19.3 kmh 29.62 in1003.0 mb 0.00 in0.0 mm 0.00 in0.0 mm 0.00 in0.0 mm
06:05 PM 94.2°F34.6°C 58.0°F14.4°C 30% 7.0 mph SW11.3 kmh SW 15.0 mph24.1 kmh 29.62 in1003.0 mb 0.00 in0.0 mm 0.00 in0.0 mm 0.00 in0.0 mm
06:10 PM 93.1°F33.9°C 57.9°F14.4°C 31% 7.2 mph SW11.6 kmh SW 15.0 mph24.1 kmh 29.62 in1003.0 mb 0.00 in0.0 mm 0.00 in0.0 mm 0.00 in0.0 mm
06:15 PM 92.1°F33.4°C 58.0°F14.4°C 32% 6.0 mph SW9.7 kmh SW 13.0 mph20.9 kmh 29.63 in1003.4 mb 0.00 in0.0 mm 0.00 in0.0 mm 0.00 in0.0 mm
06:20 PM 91.4°F33.0°C 57.3°F14.1°C 32% 5.2 mph SW8.4 kmh SW 12.0 mph19.3 kmh 29.63 in1003.4 mb 0.00 in0.0 mm 0.00 in0.0 mm 0.00 in0.0 mm
06:25 PM 91.0°F32.8°C 57.9°F14.4°C 33% 3.1 mph SW5.0 kmh SW 12.0 mph19.3 kmh 29.63 in1003.4 mb 0.00 in0.0 mm 0.00 in0.0 mm 0.00 in0.0 mm
06:30 PM 90.4°F32.4°C 57.3°F14.1°C 33% 3.5 mph S5.6 kmh S 10.0 mph16.1 kmh 29.63 in1003.4 mb 0.00 in0.0 mm 0.00 in0.0 mm 0.00 in0.0 mm
06:35 PM 89.8°F32.1°C 57.6°F14.2°C 34% 3.4 mph SSW5.5 kmh SSW 9.0 mph14.5 kmh 29.63 in1003.4 mb 0.00 in0.0 mm 0.00 in0.0 mm 0.00 in0.0 mm
06:40 PM 89.3°F31.8°C 57.2°F14.0°C 34% 1.7 mph SSW2.7 kmh SSW 8.0 mph12.9 kmh 29.63 in1003.4 mb 0.00 in0.0 mm 0.00 in0.0 mm 0.00 in0.0 mm
06:45 PM 88.8°F31.6°C 56.8°F13.8°C 34% 0.4 mph SSW0.6 kmh SSW 6.0 mph9.7 kmh 29.64 in1003.7 mb 0.00 in0.0 mm 0.00 in0.0 mm 0.00 in0.0 mm
06:50 PM 88.4°F31.3°C 57.2°F14.0°C 35% 0.1 mph S0.2 kmh S 4.0 mph6.4 kmh 29.64 in1003.7 mb 0.00 in0.0 mm 0.00 in0.0 mm 0.00 in0.0 mm
06:55 PM 88.0°F31.1°C 56.9°F13.8°C 35% 0.5 mph SW0.8 kmh SW 3.0 mph4.8 kmh 29.64 in1003.7 mb 0.00 in0.0 mm 0.00 in0.0 mm 0.00 in0.0 mm
07:00 PM 87.7°F30.9°C 56.6°F13.7°C 35% 1.2 mph SSE1.9 kmh SSE 3.0 mph4.8 kmh 29.65 in1004.1 mb 0.00 in0.0 mm 0.00 in0.0 mm 0.00 in0.0 mm
07:05 PM 87.4°F30.8°C 56.4°F13.6°C 35% Calm Calm 3.0 mph4.8 kmh 29.65 in1004.1 mb 0.00 in0.0 mm 0.00 in0.0 mm 0.00 in0.0 mm
07:10 PM 87.0°F30.6°C 56.0°F13.3°C 35% 1.1 mph NNE1.8 kmh NNE 4.0 mph6.4 kmh 29.65 in1004.1 mb 0.00 in0.0 mm 0.00 in0.0 mm 0.00 in0.0 mm
07:15 PM 86.4°F30.2°C 57.0°F13.9°C 37% 1.2 mph NE1.9 kmh NE 4.0 mph6.4 kmh 29.66 in1004.4 mb 0.00 in0.0 mm 0.00 in0.0 mm 0.00 in0.0 mm
07:20 PM 86.5°F30.3°C 56.3°F13.5°C 36% 2.5 mph E4.0 kmh E 4.0 mph6.4 kmh 29.66 in1004.4 mb 0.00 in0.0 mm 0.00 in0.0 mm 0.00 in0.0 mm
07:25 PM 86.9°F30.5°C 55.9°F13.3°C 35% 3.4 mph ESE5.5 kmh ESE 6.0 mph9.7 kmh 29.66 in1004.4 mb 0.00 in0.0 mm 0.00 in0.0 mm 0.00 in0.0 mm
07:30 PM 87.4°F30.8°C 56.4°F13.6°C 35% 3.1 mph SSE5.0 kmh SSE 7.0 mph11.3 kmh 29.66 in1004.4 mb 0.00 in0.0 mm 0.00 in0.0 mm 0.00 in0.0 mm
07:35 PM 87.6°F30.9°C 56.5°F13.6°C 35% 1.1 mph SE1.8 kmh SE 7.0 mph11.3 kmh 29.66 in1004.4 mb 0.00 in0.0 mm 0.00 in0.0 mm 0.00 in0.0 mm
07:40 PM 87.2°F30.7°C 56.2°F13.4°C 35% 2.9 mph S4.7 kmh S 9.0 mph14.5 kmh 29.66 in1004.4 mb 0.00 in0.0 mm 0.00 in0.0 mm 0.00 in0.0 mm
07:45 PM 87.0°F30.6°C 57.5°F14.2°C 37% 0.4 mph S0.6 kmh S 9.0 mph14.5 kmh 29.66 in1004.4 mb 0.00 in0.0 mm 0.00 in0.0 mm 0.00 in0.0 mm
07:50 PM 86.4°F30.2°C 57.8°F14.3°C 38% 1.6 mph SSE2.6 kmh SSE 5.0 mph8.0 kmh 29.66 in1004.4 mb 0.00 in0.0 mm 0.00 in0.0 mm 0.00 in0.0 mm
07:55 PM 86.0°F30.0°C 56.7°F13.7°C 37% 1.1 mph SE1.8 kmh SE 5.0 mph8.0 kmh 29.66 in1004.4 mb 0.00 in0.0 mm 0.00 in0.0 mm 0.00 in0.0 mm
08:00 PM 85.7°F29.8°C 56.4°F13.6°C 37% 2.5 mph ESE4.0 kmh ESE 6.0 mph9.7 kmh 29.67 in1004.7 mb 0.00 in0.0 mm 0.00 in0.0 mm 0.00 in0.0 mm
08:05 PM 86.0°F30.0°C 55.9°F13.3°C 36% 3.7 mph ESE6.0 kmh ESE 7.0 mph11.3 kmh 29.67 in1004.7 mb 0.00 in0.0 mm 0.00 in0.0 mm 0.00 in0.0 mm
08:10 PM 85.9°F29.9°C 55.8°F13.2°C 36% 1.0 mph ESE1.6 kmh ESE 7.0 mph11.3 kmh 29.67 in1004.7 mb 0.00 in0.0 mm 0.00 in0.0 mm 0.00 in0.0 mm
08:15 PM 85.2°F29.6°C 58.1°F14.5°C 40% Calm Calm 4.0 mph6.4 kmh 29.67 in1004.7 mb 0.00 in0.0 mm 0.00 in0.0 mm 0.00 in0.0 mm
08:20 PM 84.1°F28.9°C 57.1°F13.9°C 40% Calm Calm 1.0 mph1.6 kmh 29.67 in1004.7 mb 0.00 in0.0 mm 0.00 in0.0 mm 0.00 in0.0 mm
08:25 PM 83.3°F28.5°C 57.8°F14.3°C 42% Calm Calm -- 29.67 in1004.7 mb 0.00 in0.0 mm 0.00 in0.0 mm 0.00 in0.0 mm
08:30 PM 82.3°F27.9°C 58.8°F14.9°C 45% Calm Calm -- 29.67 in1004.7 mb 0.00 in0.0 mm 0.00 in0.0 mm 0.00 in0.0 mm
08:35 PM 81.0°F27.2°C 58.2°F14.6°C 46% Calm Calm -- 29.67 in1004.7 mb 0.00 in0.0 mm 0.00 in0.0 mm 0.00 in0.0 mm
08:40 PM 80.1°F26.7°C 58.6°F14.8°C 48% Calm Calm -- 29.67 in1004.7 mb 0.00 in0.0 mm 0.00 in0.0 mm 0.00 in0.0 mm
08:45 PM 79.7°F26.5°C 56.5°F13.6°C 45% Calm Calm -- 29.68 in1005.1 mb 0.00 in0.0 mm 0.00 in0.0 mm 0.00 in0.0 mm
08:50 PM 79.9°F26.6°C 56.6°F13.7°C 45% Calm Calm -- 29.68 in1005.1 mb 0.00 in0.0 mm 0.00 in0.0 mm 0.00 in0.0 mm
08:55 PM 79.9°F26.6°C 56.6°F13.7°C 45% Calm Calm 1.0 mph1.6 kmh 29.68 in1005.1 mb 0.00 in0.0 mm 0.00 in0.0 mm 0.00 in0.0 mm
09:00 PM 80.0°F26.7°C 57.3°F14.1°C 46% 0.1 mph ESE0.2 kmh ESE 2.0 mph3.2 kmh 29.68 in1005.1 mb 0.00 in0.0 mm 0.00 in0.0 mm 0.00 in0.0 mm
09:05 PM 79.8°F26.6°C 58.3°F14.6°C 48% Calm Calm 2.0 mph3.2 kmh 29.68 in1005.1 mb 0.00 in0.0 mm 0.00 in0.0 mm 0.00 in0.0 mm
09:10 PM 79.6°F26.4°C 58.7°F14.8°C 49% Calm Calm 1.0 mph1.6 kmh 29.68 in1005.1 mb 0.00 in0.0 mm 0.00 in0.0 mm 0.00 in0.0 mm
09:15 PM 79.4°F26.3°C 58.6°F14.8°C 49% 0.4 mph NW0.6 kmh NW 3.0 mph4.8 kmh 29.69 in1005.4 mb 0.00 in0.0 mm 0.00 in0.0 mm 0.00 in0.0 mm
09:20 PM 79.7°F26.5°C 57.1°F13.9°C 46% 1.6 mph N2.6 kmh N 5.0 mph8.0 kmh 29.69 in1005.4 mb 0.00 in0.0 mm 0.00 in0.0 mm 0.00 in0.0 mm
09:25 PM 79.9°F26.6°C 57.2°F14.0°C 46% 1.1 mph N1.8 kmh N 6.0 mph9.7 kmh 29.69 in1005.4 mb 0.00 in0.0 mm 0.00 in0.0 mm 0.00 in0.0 mm
09:30 PM 80.1°F26.7°C 57.4°F14.1°C 46% 0.8 mph NW1.3 kmh NW 6.0 mph9.7 kmh 29.69 in1005.4 mb 0.00 in0.0 mm 0.00 in0.0 mm 0.00 in0.0 mm
09:35 PM 80.2°F26.8°C 57.5°F14.2°C 46% 1.5 mph NW2.4 kmh NW 5.0 mph8.0 kmh 29.69 in1005.4 mb 0.00 in0.0 mm 0.00 in0.0 mm 0.00 in0.0 mm
09:40 PM 80.1°F26.7°C 57.4°F14.1°C 46% 2.3 mph WNW3.7 kmh WNW 7.0 mph11.3 kmh 29.69 in1005.4 mb 0.00 in0.0 mm 0.00 in0.0 mm 0.00 in0.0 mm
09:45 PM 79.8°F26.6°C 57.2°F14.0°C 46% 1.6 mph WNW2.6 kmh WNW 7.0 mph11.3 kmh 29.70 in1005.8 mb 0.00 in0.0 mm 0.00 in0.0 mm 0.00 in0.0 mm
09:50 PM 79.5°F26.4°C 56.9°F13.8°C 46% 1.7 mph WNW2.7 kmh WNW 7.0 mph11.3 kmh 29.70 in1005.8 mb 0.00 in0.0 mm 0.00 in0.0 mm 0.00 in0.0 mm
09:55 PM 79.4°F26.3°C 56.8°F13.8°C 46% 1.6 mph WNW2.6 kmh WNW 7.0 mph11.3 kmh 29.70 in1005.8 mb 0.00 in0.0 mm 0.00 in0.0 mm 0.00 in0.0 mm
10:00 PM 79.1°F26.2°C 56.5°F13.6°C 46% 1.2 mph WNW1.9 kmh WNW 7.0 mph11.3 kmh 29.70 in1005.8 mb 0.00 in0.0 mm 0.00 in0.0 mm 0.00 in0.0 mm
10:05 PM 78.7°F25.9°C 56.8°F13.8°C 47% 1.1 mph WNW1.8 kmh WNW 6.0 mph9.7 kmh 29.70 in1005.8 mb 0.00 in0.0 mm 0.00 in0.0 mm 0.00 in0.0 mm
10:10 PM 78.4°F25.8°C 57.1°F13.9°C 48% 1.0 mph NW1.6 kmh NW 6.0 mph9.7 kmh 29.70 in1005.8 mb 0.00 in0.0 mm 0.00 in0.0 mm 0.00 in0.0 mm
10:15 PM 78.1°F25.6°C 56.8°F13.8°C 48% 1.1 mph WNW1.8 kmh WNW 5.0 mph8.0 kmh 29.71 in1006.1 mb 0.00 in0.0 mm 0.00 in0.0 mm 0.00 in0.0 mm
10:20 PM 77.7°F25.4°C 57.0°F13.9°C 49% 1.7 mph WNW2.7 kmh WNW 6.0 mph9.7 kmh 29.71 in1006.1 mb 0.00 in0.0 mm 0.00 in0.0 mm 0.00 in0.0 mm
10:25 PM 77.5°F25.3°C 56.8°F13.8°C 49% 2.0 mph WNW3.2 kmh WNW 6.0 mph9.7 kmh 29.71 in1006.1 mb 0.00 in0.0 mm 0.00 in0.0 mm 0.00 in0.0 mm
10:30 PM 77.3°F25.2°C 56.6°F13.7°C 49% 1.2 mph NW1.9 kmh NW 6.0 mph9.7 kmh 29.72 in1006.4 mb 0.00 in0.0 mm 0.00 in0.0 mm 0.00 in0.0 mm
10:35 PM 77.1°F25.1°C 56.4°F13.6°C 49% 2.1 mph NW3.4 kmh NW 6.0 mph9.7 kmh 29.72 in1006.4 mb 0.00 in0.0 mm 0.00 in0.0 mm 0.00 in0.0 mm
10:40 PM 77.1°F25.1°C 56.4°F13.6°C 49% 1.5 mph NW2.4 kmh NW 6.0 mph9.7 kmh 29.72 in1006.4 mb 0.00 in0.0 mm 0.00 in0.0 mm 0.00 in0.0 mm
10:45 PM 76.9°F24.9°C 56.3°F13.5°C 49% 1.8 mph NW2.9 kmh NW 8.0 mph12.9 kmh 29.72 in1006.4 mb 0.00 in0.0 mm 0.00 in0.0 mm 0.00 in0.0 mm
10:50 PM 76.6°F24.8°C 56.5°F13.6°C 50% 1.8 mph NW2.9 kmh NW 8.0 mph12.9 kmh 29.72 in1006.4 mb 0.00 in0.0 mm 0.00 in0.0 mm 0.00 in0.0 mm
10:55 PM 76.2°F24.6°C 56.7°F13.7°C 51% 0.7 mph NW1.1 kmh NW 7.0 mph11.3 kmh 29.72 in1006.4 mb 0.00 in0.0 mm 0.00 in0.0 mm 0.00 in0.0 mm
11:00 PM 75.8°F24.3°C 56.4°F13.6°C 51% 1.8 mph N2.9 kmh N 8.0 mph12.9 kmh 29.73 in1006.8 mb 0.00 in0.0 mm 0.00 in0.0 mm 0.00 in0.0 mm
11:05 PM 75.4°F24.1°C 56.5°F13.6°C 52% 2.0 mph N3.2 kmh N 8.0 mph12.9 kmh 29.73 in1006.8 mb 0.00 in0.0 mm 0.00 in0.0 mm 0.00 in0.0 mm
11:10 PM 75.2°F24.0°C 56.3°F13.5°C 52% 1.4 mph N2.3 kmh N 8.0 mph12.9 kmh 29.73 in1006.8 mb 0.00 in0.0 mm 0.00 in0.0 mm 0.00 in0.0 mm
11:15 PM 74.9°F23.8°C 56.6°F13.7°C 53% 1.9 mph N3.1 kmh N 9.0 mph14.5 kmh 29.73 in1006.8 mb 0.00 in0.0 mm 0.00 in0.0 mm 0.00 in0.0 mm
11:20 PM 74.5°F23.6°C 56.2°F13.4°C 53% 1.7 mph NNW2.7 kmh NNW 9.0 mph14.5 kmh 29.73 in1006.8 mb 0.00 in0.0 mm 0.00 in0.0 mm 0.00 in0.0 mm
11:25 PM 74.2°F23.4°C 56.5°F13.6°C 54% 1.0 mph NNW1.6 kmh NNW 6.0 mph9.7 kmh 29.73 in1006.8 mb 0.00 in0.0 mm 0.00 in0.0 mm 0.00 in0.0 mm
11:30 PM 74.2°F23.4°C 56.5°F13.6°C 54% 2.3 mph NNW3.7 kmh NNW 8.0 mph12.9 kmh 29.73 in1006.8 mb 0.00 in0.0 mm 0.00 in0.0 mm 0.00 in0.0 mm
11:35 PM 74.1°F23.4°C 56.4°F13.6°C 54% 1.3 mph N2.1 kmh N 8.0 mph12.9 kmh 29.73 in1006.8 mb 0.00 in0.0 mm 0.00 in0.0 mm 0.00 in0.0 mm
11:40 PM 73.8°F23.2°C 56.1°F13.4°C 54% 1.6 mph N2.6 kmh N 7.0 mph11.3 kmh 29.73 in1006.8 mb 0.00 in0.0 mm 0.00 in0.0 mm 0.00 in0.0 mm
11:45 PM 73.5°F23.1°C 56.3°F13.5°C 55% 2.4 mph NNW3.9 kmh NNW 8.0 mph12.9 kmh 29.74 in1007.1 mb 0.00 in0.0 mm 0.00 in0.0 mm 0.00 in0.0 mm
11:50 PM 73.1°F22.8°C 56.5°F13.6°C 56% 2.0 mph NW3.2 kmh NW 8.0 mph12.9 kmh 29.74 in1007.1 mb 0.00 in0.0 mm 0.00 in0.0 mm 0.00 in0.0 mm
11:55 PM 72.7°F22.6°C 56.6°F13.7°C 57% 2.2 mph N3.5 kmh N 9.0 mph14.5 kmh 29.74 in1007.1 mb 0.00 in0.0 mm 0.00 in0.0 mm 0.00 in0.0 mm